Time;durP1;ratioP1;P1;durP2;ratioP2;P2;SDS_P1;SDS_P2;PMS_P1;PMS_P2;Temp;Humidity;BMP_temperature;BMP_pressure;BME280_temperature;BME280_humidity;BME280_pressure;Samples;Min_cycle;Max_cycle;Signal;HPM_P1;HPM_P2
2023/08/14 00:00:48;;;;;;;16.15;15.25;;;;;;;19.46;85.96;98842.41;5116771;27;20043;-91
2023/08/14 00:03:15;;;;;;;13.80;12.95;;;;;;;19.47;86.58;98854.03;5116096;27;20064;-93
2023/08/14 00:05:41;;;;;;;13.30;12.50;;;;;;;19.33;87.38;98833.34;5117289;27;20543;-92
2023/08/14 00:08:06;;;;;;;12.75;11.85;;;;;;;19.42;87.08;98840.84;5117121;27;20056;-91
2023/08/14 00:10:32;;;;;;;11.90;11.15;;;;;;;19.46;87.41;98842.41;5118163;27;20040;-92
2023/08/14 00:12:58;;;;;;;12.88;11.95;;;;;;;19.41;88.09;98836.44;5118047;27;20407;-91
2023/08/14 00:15:24;;;;;;;12.27;11.27;;;;;;;19.42;87.94;98840.00;5115620;27;20543;-93
2023/08/14 00:17:51;;;;;;;11.50;10.60;;;;;;;19.45;87.78;98835.28;5119032;27;20039;-92
2023/08/14 00:20:18;;;;;;;11.60;10.80;;;;;;;19.59;87.34;98850.59;5117034;27;20039;-91
2023/08/14 00:22:44;;;;;;;12.50;11.65;;;;;;;19.61;87.52;98853.19;5116977;27;20099;-92
2023/08/14 00:25:10;;;;;;;11.43;10.45;;;;;;;19.57;87.53;98847.13;5116518;27;20063;-92
2023/08/14 00:27:36;;;;;;;11.13;10.32;;;;;;;19.57;88.00;98851.66;5116993;27;20043;-91
2023/08/14 00:30:03;;;;;;;10.65;9.75;;;;;;;19.42;89.63;98835.47;5114387;27;20043;-91
2023/08/14 00:32:29;;;;;;;10.98;10.18;;;;;;;19.48;89.55;98853.09;5116748;27;20122;-93
2023/08/14 00:34:55;;;;;;;10.50;9.80;;;;;;;19.35;89.33;98825.16;5118171;27;20039;-93
2023/08/14 00:37:38;;;;;;;10.80;10.00;;;;;;;19.25;91.75;98832.94;5116621;27;20039;-92
2023/08/14 00:40:06;;;;;;;9.50;8.80;;;;;;;19.29;91.26;98839.88;5117829;27;20050;-93
2023/08/14 00:42:32;;;;;;;9.02;8.30;;;;;;;19.27;92.55;98847.19;5115913;27;20054;-91
2023/08/14 00:44:58;;;;;;;8.90;8.20;;;;;;;19.15;92.15;98829.97;5117961;27;20063;-93
2023/08/14 00:47:24;;;;;;;8.55;7.82;;;;;;;19.23;94.18;98849.19;5115129;27;20485;-92
2023/08/14 00:49:51;;;;;;;9.10;8.30;;;;;;;19.25;95.95;98859.91;5116021;27;20043;-92
2023/08/14 00:52:17;;;;;;;9.23;8.32;;;;;;;19.16;96.01;98853.25;5117126;27;20039;-92
2023/08/14 00:54:44;;;;;;;8.85;7.68;;;;;;;18.97;96.89;98829.22;5116973;27;20039;-92
2023/08/14 00:57:10;;;;;;;8.00;7.20;;;;;;;18.96;96.64;98840.97;5116939;27;20054;-91
2023/08/14 00:59:36;;;;;;;7.88;7.18;;;;;;;18.95;96.33;98849.16;5118018;27;20404;-92
2023/08/14 01:02:02;;;;;;;8.18;6.88;;;;;;;19.00;97.53;98863.22;5116355;27;20080;-93
2023/08/14 01:04:28;;;;;;;8.82;7.20;;;;;;;18.96;98.44;98854.44;5115720;27;20035;-91
2023/08/14 01:06:54;;;;;;;8.07;7.35;;;;;;;18.94;97.07;98859.06;5115878;27;20031;-93
2023/08/14 01:09:20;;;;;;;7.95;7.22;;;;;;;18.87;97.42;98868.47;5113301;27;20035;-91
2023/08/14 01:12:00;;;;;;;7.20;6.60;;;;;;;18.76;98.53;98865.50;5115752;27;20502;-91
2023/08/14 01:14:31;;;;;;;7.28;6.57;;;;;;;18.77;98.46;98861.88;5114350;27;20039;-91
2023/08/14 01:17:02;;;;;;;7.28;6.55;;;;;;;18.79;98.78;98870.75;5115079;27;20427;-92
2023/08/14 01:19:34;;;;;;;7.20;6.47;;;;;;;18.71;98.34;98859.53;5113063;27;20039;-94
2023/08/14 01:22:05;;;;;;;6.57;5.97;;;;;;;18.76;99.60;98874.47;5112689;27;20133;-92
2023/08/14 01:24:45;;;;;;;8.75;6.40;;;;;;;18.71;98.69;98863.09;5114467;27;20035;-92
2023/08/14 01:27:13;;;;;;;7.20;6.60;;;;;;;18.74;99.75;98865.63;5114289;27;20100;-91
2023/08/14 01:29:39;;;;;;;6.85;6.13;;;;;;;18.73;100.00;98863.00;5115220;27;20118;-91
2023/08/14 01:32:05;;;;;;;6.47;5.97;;;;;;;18.67;100.00;98864.22;5114311;27;20138;-93
2023/08/14 01:34:31;;;;;;;6.57;6.00;;;;;;;18.55;100.00;98867.66;5114955;27;20035;-91
2023/08/14 01:37:02;;;;;;;7.93;6.70;;;;;;;18.40;100.00;98843.34;5116156;27;20035;-92
2023/08/14 01:39:38;;;;;;;7.57;6.88;;;;;;;18.51;100.00;98872.34;5114726;27;20587;-91
2023/08/14 01:42:15;;;;;;;7.55;6.57;;;;;;;18.53;100.00;98865.03;5115000;28;20035;-92
2023/08/14 01:44:44;;;;;;;7.00;6.40;;;;;;;18.48;100.00;98861.75;5115430;27;20051;-91
2023/08/14 01:47:16;;;;;;;7.18;6.57;;;;;;;18.45;100.00;98870.00;5103899;27;20131;-92
2023/08/14 01:49:44;;;;;;;7.72;6.72;;;;;;;18.40;100.00;98855.94;5085496;28;20497;-92
2023/08/14 01:52:10;;;;;;;7.00;6.30;;;;;;;18.38;100.00;98858.72;5097878;27;20039;-93
2023/08/14 01:54:36;;;;;;;8.43;6.30;;;;;;;18.36;100.00;98849.00;5104159;27;20035;-92
2023/08/14 01:57:01;;;;;;;7.28;5.93;;;;;;;18.44;100.00;98862.88;5084333;28;20050;-91
2023/08/14 01:59:40;;;;;;;7.22;6.50;;;;;;;18.36;100.00;98862.44;5095881;28;20497;-95
2023/08/14 02:02:08;;;;;;;7.00;6.40;;;;;;;18.31;100.00;98851.09;5095107;28;20119;-92
2023/08/14 02:04:33;;;;;;;7.20;6.47;;;;;;;18.34;100.00;98862.53;5092829;28;20043;-92
2023/08/14 02:06:59;;;;;;;7.03;6.38;;;;;;;18.16;100.00;98847.44;5085416;28;20130;-92
2023/08/14 02:09:25;;;;;;;7.10;6.50;;;;;;;18.03;100.00;98839.19;5097364;28;20036;-93
2023/08/14 02:11:51;;;;;;;7.70;6.88;;;;;;;17.96;100.00;98827.06;5095482;28;20565;-91
2023/08/14 02:14:17;;;;;;;7.15;6.43;;;;;;;17.99;100.00;98833.09;5093221;28;20032;-92
2023/08/14 02:16:42;;;;;;;7.40;6.68;;;;;;;17.99;100.00;98835.78;5094041;28;20129;-92
2023/08/14 02:19:10;;;;;;;7.47;6.85;;;;;;;18.02;100.00;98851.78;5094135;28;20151;-93
2023/08/14 02:21:36;;;;;;;7.10;6.50;;;;;;;17.88;100.00;98830.16;5093516;28;20040;-94
2023/08/14 02:24:01;;;;;;;7.35;6.63;;;;;;;17.96;100.00;98848.56;5094930;28;20031;-93
2023/08/14 02:26:27;;;;;;;7.00;6.30;;;;;;;17.90;100.00;98838.16;5096377;28;20037;-93
2023/08/14 02:28:53;;;;;;;6.57;5.97;;;;;;;17.88;100.00;98835.53;5095069;28;20042;-93
2023/08/14 02:31:19;;;;;;;8.00;6.60;;;;;;;17.88;100.00;98845.44;5094712;28;20074;-92
2023/08/14 02:33:45;;;;;;;7.80;7.00;;;;;;;17.74;100.00;98847.03;5086282;28;20055;-91
2023/08/14 02:36:12;;;;;;;8.07;7.07;;;;;;;17.73;100.00;98839.06;5093628;28;20560;-91
2023/08/14 02:38:38;;;;;;;7.95;7.18;;;;;;;17.63;100.00;98827.91;5095539;28;20502;-92
2023/08/14 02:41:06;;;;;;;7.32;6.72;;;;;;;17.74;100.00;98847.03;5093528;28;20059;-91
2023/08/14 02:43:32;;;;;;;7.25;6.55;;;;;;;17.75;100.00;98853.28;5095646;28;20055;-93
2023/08/14 02:45:58;;;;;;;7.35;6.75;;;;;;;17.58;100.00;98844.31;5093268;28;20493;-92
2023/08/14 02:48:25;;;;;;;7.63;7.03;;;;;;;17.58;100.00;98830.00;5099244;28;20054;-92
2023/08/14 02:50:50;;;;;;;7.82;7.13;;;;;;;17.46;100.00;98818.09;5110953;28;20039;-92
2023/08/14 02:53:19;;;;;;;7.55;6.90;;;;;;;17.62;100.00;98851.25;5108509;27;20442;-92
2023/08/14 02:55:49;;;;;;;7.88;7.18;;;;;;;17.49;100.00;98833.19;5106324;27;20084;-93
2023/08/14 02:58:15;;;;;;;7.93;7.18;;;;;;;17.51;100.00;98842.91;5106594;27;20462;-91
2023/08/14 03:00:41;;;;;;;7.30;6.35;;;;;;;17.43;100.00;98846.00;5106267;27;20130;-92
2023/08/14 03:03:07;;;;;;;12.60;6.75;;;;;;;17.46;100.00;98842.31;5107571;27;20040;-93
2023/08/14 03:05:33;;;;;;;7.63;6.78;;;;;;;17.37;100.00;98819.47;5112110;27;20061;-92
2023/08/14 03:07:59;;;;;;;7.30;6.63;;;;;;;17.45;100.00;98845.94;5111183;27;20619;-92
2023/08/14 03:10:26;;;;;;;8.10;7.25;;;;;;;17.26;100.00;98824.53;5103871;27;20133;-92
2023/08/14 03:12:52;;;;;;;7.50;6.80;;;;;;;17.10;100.00;98826.31;5107717;27;20035;-93
2023/08/14 03:15:18;;;;;;;8.00;7.18;;;;;;;17.13;100.00;98828.81;5105656;27;20095;-93
2023/08/14 03:17:44;;;;;;;8.63;7.72;;;;;;;17.18;100.00;98818.72;5107831;27;20135;-93
2023/08/14 03:20:10;;;;;;;8.32;7.53;;;;;;;17.00;100.00;98799.06;5111711;27;20067;-92
2023/08/14 03:22:36;;;;;;;8.40;7.40;;;;;;;17.20;100.00;98827.56;5107083;27;20395;-92
2023/08/14 03:25:03;;;;;;;9.18;7.78;;;;;;;17.35;100.00;98837.50;5104829;27;20039;-92
2023/08/14 03:27:31;;;;;;;7.88;7.25;;;;;;;17.37;100.00;98834.72;5109382;27;20039;-92
2023/08/14 03:29:57;;;;;;;8.63;7.93;;;;;;;17.31;100.00;98818.94;5111981;27;20046;-92
2023/08/14 03:32:22;;;;;;;8.20;7.40;;;;;;;17.32;100.00;98831.41;5107201;28;20040;-91
2023/08/14 03:34:48;;;;;;;8.90;8.10;;;;;;;17.14;100.00;98822.53;5103723;27;20036;-92
2023/08/14 03:37:14;;;;;;;8.75;7.95;;;;;;;17.13;100.00;98834.19;5106039;27;20185;-91
2023/08/14 03:39:40;;;;;;;9.20;8.45;;;;;;;17.10;100.00;98826.31;5103216;28;20125;-92
2023/08/14 03:42:06;;;;;;;9.85;8.70;;;;;;;17.22;100.00;98847.19;5108960;27;20031;-91
2023/08/14 03:44:33;;;;;;;9.35;8.55;;;;;;;17.26;100.00;98835.28;5107924;27;20038;-92
2023/08/14 03:46:59;;;;;;;10.15;9.30;;;;;;;17.44;100.00;98847.75;5119307;27;20138;-91
2023/08/14 03:49:25;;;;;;;9.02;8.23;;;;;;;17.43;100.00;98847.81;5122037;27;20054;-91
2023/08/14 03:51:51;;;;;;;9.40;8.27;;;;;;;17.50;100.00;98851.94;5126759;27;20066;-91
2023/08/14 03:54:16;;;;;;;9.20;8.45;;;;;;;17.57;100.00;98855.16;5131657;27;20387;-92
2023/08/14 03:56:42;;;;;;;8.65;7.95;;;;;;;17.55;100.00;98839.09;5126824;27;20045;-92
2023/08/14 03:59:08;;;;;;;9.70;8.80;;;;;;;17.53;100.00;98840.16;5124149;27;20035;-92
2023/08/14 04:01:37;;;;;;;9.38;8.32;;;;;;;17.48;100.00;98848.47;5124167;27;20051;-90
2023/08/14 04:04:04;;;;;;;9.40;8.50;;;;;;;17.14;100.00;98825.22;5129319;27;20043;-92
2023/08/14 04:06:29;;;;;;;10.00;9.00;;;;;;;17.06;100.00;98835.47;5124107;27;20122;-92
2023/08/14 04:08:57;;;;;;;10.13;9.23;;;;;;;17.01;100.00;98852.72;5130486;27;20082;-90
2023/08/14 04:11:23;;;;;;;9.60;8.70;;;;;;;16.97;100.00;98853.81;5123598;27;20039;-92
2023/08/14 04:13:49;;;;;;;12.20;10.40;;;;;;;17.11;100.00;98860.28;5126185;27;20097;-91
2023/08/14 04:16:15;;;;;;;9.90;9.00;;;;;;;17.12;100.00;98865.59;5123332;27;20492;-92
2023/08/14 04:18:42;;;;;;;10.73;9.75;;;;;;;17.13;100.00;98859.28;5116315;27;20043;-93
2023/08/14 04:21:08;;;;;;;9.88;9.07;;;;;;;17.14;100.00;98858.31;5122164;27;20075;-91
2023/08/14 04:23:33;;;;;;;10.52;9.77;;;;;;;17.22;100.00;98863.31;5120149;27;20488;-93
2023/08/14 04:25:59;;;;;;;10.02;9.07;;;;;;;16.92;100.00;98866.63;5123418;27;20049;-91
2023/08/14 04:28:25;;;;;;;10.38;9.52;;;;;;;16.90;100.00;98873.91;5112021;27;20030;-93
2023/08/14 04:30:51;;;;;;;10.88;9.88;;;;;;;16.68;100.00;98874.09;5127471;27;20058;-91
2023/08/14 04:33:17;;;;;;;10.85;10.00;;;;;;;16.62;100.00;98879.75;5125937;27;20467;-91
2023/08/14 04:35:44;;;;;;;11.43;10.30;;;;;;;16.52;100.00;98857.84;5128923;27;20043;-92
2023/08/14 04:38:10;;;;;;;11.35;10.45;;;;;;;16.72;100.00;98877.47;5121980;27;20488;-92
2023/08/14 04:40:36;;;;;;;11.27;10.27;;;;;;;16.75;100.00;98880.00;5124814;27;20430;-93
2023/08/14 04:43:02;;;;;;;11.02;10.20;;;;;;;16.80;100.00;98886.91;5121463;27;20027;-91
2023/08/14 04:45:28;;;;;;;10.68;9.80;;;;;;;16.76;100.00;98881.75;5108188;27;20046;-91
2023/08/14 04:47:54;;;;;;;10.80;9.38;;;;;;;16.77;100.00;98862.00;5123631;27;20043;-91
2023/08/14 04:50:20;;;;;;;11.13;10.20;;;;;;;16.96;100.00;98881.63;5127135;27;20054;-92
2023/08/14 04:52:47;;;;;;;10.40;9.55;;;;;;;17.11;100.00;98884.47;5123864;27;20031;-91
2023/08/14 04:55:13;;;;;;;10.68;9.70;;;;;;;17.12;100.00;98880.84;5124939;27;20146;-90
2023/08/14 04:57:39;;;;;;;10.27;9.45;;;;;;;17.18;99.29;98877.84;5114058;27;20134;-93
2023/08/14 05:00:06;;;;;;;9.90;9.00;;;;;;;17.15;97.66;98857.34;5116635;27;20083;-92
2023/08/14 05:02:32;;;;;;;11.32;10.38;;;;;;;17.32;96.40;98872.59;5112061;27;20078;-91
2023/08/14 05:04:58;;;;;;;9.80;9.05;;;;;;;17.51;95.53;98888.63;5117434;27;20063;-91
2023/08/14 05:07:24;;;;;;;10.60;9.80;;;;;;;17.56;95.81;98891.91;5121143;27;20036;-92
2023/08/14 05:09:51;;;;;;;9.48;8.68;;;;;;;17.42;96.07;98873.84;5126864;27;20031;-93
2023/08/14 05:12:17;;;;;;;9.70;8.80;;;;;;;17.53;96.78;98883.16;5120585;27;20031;-92
2023/08/14 05:14:43;;;;;;;10.90;9.88;;;;;;;17.37;98.00;98857.09;5113682;27;20031;-92
2023/08/14 05:17:09;;;;;;;9.85;8.95;;;;;;;17.51;96.31;98869.78;5119094;27;20047;-92
2023/08/14 05:19:35;;;;;;;9.98;9.13;;;;;;;17.57;95.39;98869.47;5126248;27;20067;-93
2023/08/14 05:22:00;;;;;;;10.63;9.63;;;;;;;17.58;96.20;98859.56;5124550;27;20157;-92
2023/08/14 05:24:26;;;;;;;9.40;8.50;;;;;;;17.81;92.21;98866.41;5128274;27;20030;-92
2023/08/14 05:26:53;;;;;;;1089.07;534.60;;;;;;;17.92;93.76;98866.69;5127800;27;20043;-91
2023/08/14 05:29:19;;;;;;;18.40;17.27;;;;;;;18.27;91.75;98861.16;5118572;27;20035;-91
2023/08/14 05:31:45;;;;;;;9.18;8.40;;;;;;;18.82;88.98;98881.34;5121139;27;20065;-92
2023/08/14 05:34:11;;;;;;;10.07;8.10;;;;;;;19.15;88.13;98858.72;5128654;27;20027;-93
2023/08/14 05:36:37;;;;;;;19.88;10.02;;;;;;;19.56;84.95;98876.88;5122770;27;20077;-93
2023/08/14 05:39:03;;;;;;;10.02;9.13;;;;;;;19.65;80.48;98879.03;5123313;27;20122;-92
2023/08/14 05:41:29;;;;;;;10.45;9.60;;;;;;;19.84;79.40;98867.94;5124069;27;20035;-90
2023/08/14 05:43:56;;;;;;;10.02;9.10;;;;;;;20.22;77.82;98888.94;5128447;27;20047;-92
2023/08/14 05:46:24;;;;;;;11.40;10.40;;;;;;;20.36;74.00;98880.78;5105483;27;20389;-91
2023/08/14 05:48:51;;;;;;;11.48;10.40;;;;;;;20.65;71.29;98875.34;5109228;27;20066;-93
2023/08/14 05:51:17;;;;;;;12.57;11.68;;;;;;;20.80;67.96;98862.66;5112272;28;20089;-92
2023/08/14 05:53:43;;;;;;;14.07;12.88;;;;;;;21.03;67.59;98880.84;5109727;27;20111;-93
2023/08/14 05:56:09;;;;;;;13.43;12.52;;;;;;;21.18;69.53;98870.81;5115257;27;20039;-92
2023/08/14 05:58:34;;;;;;;14.98;13.93;;;;;;;21.25;66.10;98871.25;5116212;27;20073;-93
2023/08/14 06:01:02;;;;;;;15.48;14.38;;;;;;;21.43;66.39;98870.03;5113873;27;20044;-92
2023/08/14 06:03:28;;;;;;;18.83;17.58;;;;;;;21.58;63.00;98856.38;5106000;28;20042;-94
2023/08/14 06:05:54;;;;;;;19.85;18.63;;;;;;;21.79;60.95;98881.03;5116714;27;20039;-91
2023/08/14 06:08:20;;;;;;;19.48;18.00;;;;;;;21.73;61.76;98861.56;5115567;27;20039;-92
2023/08/14 06:10:45;;;;;;;19.77;18.65;;;;;;;21.77;62.01;98881.16;5116243;28;20039;-93
2023/08/14 06:13:11;;;;;;;19.50;18.33;;;;;;;21.88;62.80;98883.97;5115644;27;20038;-93
2023/08/14 06:15:37;;;;;;;18.02;16.95;;;;;;;21.97;64.99;98871.63;5114719;28;20045;-92
2023/08/14 06:18:05;;;;;;;18.23;17.05;;;;;;;22.14;63.32;98881.19;5116312;27;20035;-92
2023/08/14 06:20:30;;;;;;;20.77;19.38;;;;;;;22.27;61.80;98881.19;5095515;28;20054;-92
2023/08/14 06:22:56;;;;;;;20.88;19.58;;;;;;;22.41;61.38;98885.63;5112997;28;20035;-93
2023/08/14 06:25:22;;;;;;;19.30;18.10;;;;;;;22.63;61.00;98880.31;5114586;28;20096;-92
2023/08/14 06:27:48;;;;;;;19.52;18.40;;;;;;;22.28;62.31;98872.97;5114369;28;20096;-92
2023/08/14 06:30:14;;;;;;;20.40;18.75;;;;;;;22.28;64.15;98882.94;5128573;27;20489;-93
2023/08/14 06:32:40;;;;;;;18.75;17.33;;;;;;;22.34;63.62;98875.22;5117892;27;20189;-92
2023/08/14 06:35:09;;;;;;;18.33;17.08;;;;;;;22.54;63.22;98878.31;5116420;27;20126;-92
2023/08/14 06:37:35;;;;;;;;;;;;;;;22.70;62.78;98878.88;5113074;27;20047;-94
2023/08/14 06:40:03;;;;;;;20.48;19.08;;;;;;;22.72;62.06;98876.06;5119870;27;19919;-94
2023/08/14 06:42:29;;;;;;;21.08;19.60;;;;;;;22.97;62.01;98885.91;5114733;27;20037;-94
2023/08/14 06:44:55;;;;;;;21.40;20.05;;;;;;;23.12;60.67;98876.63;5118723;27;20034;-93
2023/08/14 06:47:21;;;;;;;20.95;19.75;;;;;;;22.87;60.37;98882.16;5118293;27;20077;-94
2023/08/14 06:49:47;;;;;;;21.52;20.23;;;;;;;22.84;59.30;98869.72;5119277;27;20104;-93
2023/08/14 06:52:14;;;;;;;19.65;18.52;;;;;;;22.93;58.16;98869.00;5118677;27;20488;-93
2023/08/14 06:54:40;;;;;;;20.15;19.00;;;;;;;22.68;58.86;98875.41;5119162;27;20515;-94
2023/08/14 06:57:07;;;;;;;19.48;18.30;;;;;;;22.43;58.57;98887.22;5117908;27;20039;-93
2023/08/14 06:59:34;;;;;;;18.98;17.67;;;;;;;22.43;58.11;98883.66;5120167;27;20636;-94
2023/08/14 07:02:01;;;;;;;19.55;18.42;;;;;;;22.67;58.41;98879.13;5116143;27;20043;-92
2023/08/14 07:04:27;;;;;;;18.98;17.77;;;;;;;22.29;59.35;98895.50;5119468;27;20062;-93
2023/08/14 07:06:52;;;;;;;19.70;18.42;;;;;;;22.13;58.53;98880.34;5116274;27;20059;-95
2023/08/14 07:09:20;;;;;;;20.65;19.17;;;;;;;22.34;58.69;98887.91;5119055;27;20043;-94
2023/08/14 07:11:46;;;;;;;19.25;17.98;;;;;;;22.34;57.65;98883.34;5126587;27;20039;-93
2023/08/14 07:14:12;;;;;;;19.33;18.20;;;;;;;22.37;59.34;98881.41;5122578;27;20126;-94
2023/08/14 07:16:38;;;;;;;18.98;17.55;;;;;;;22.84;58.03;98885.13;5123462;27;20130;-91
2023/08/14 07:19:04;;;;;;;19.35;18.25;;;;;;;22.82;58.41;98889.78;5123932;27;20039;-93
2023/08/14 07:21:30;;;;;;;20.70;19.27;;;;;;;22.73;57.31;98875.94;5122052;27;20453;-92
2023/08/14 07:23:56;;;;;;;18.52;17.38;;;;;;;23.21;56.59;98887.75;5123610;27;20084;-93
2023/08/14 07:26:23;;;;;;;19.08;17.88;;;;;;;23.54;54.63;98887.81;5121132;27;20035;-93
2023/08/14 07:28:49;;;;;;;18.33;17.20;;;;;;;23.67;55.16;98890.44;5116846;27;20035;-93
2023/08/14 07:31:14;;;;;;;18.85;17.25;;;;;;;23.96;52.89;98900.84;5115130;27;20092;-94
2023/08/14 07:33:40;;;;;;;17.55;16.35;;;;;;;24.06;52.31;98906.44;5118155;27;20039;-93
2023/08/14 07:36:06;;;;;;;18.45;17.25;;;;;;;24.06;51.35;98901.00;5118249;27;20084;-93
2023/08/14 07:38:32;;;;;;;17.02;15.77;;;;;;;24.37;50.29;98889.34;5117413;27;20031;-91
2023/08/14 07:40:58;;;;;;;17.73;16.40;;;;;;;24.57;51.15;98895.00;5117253;27;20031;-93
2023/08/14 07:43:25;;;;;;;17.42;16.33;;;;;;;24.74;49.94;98888.19;5118376;27;20063;-93
2023/08/14 07:45:52;;;;;;;19.05;17.95;;;;;;;24.97;49.83;98883.53;5116287;27;20043;-91
2023/08/14 07:48:18;;;;;;;17.33;16.20;;;;;;;25.15;48.92;98894.69;5115634;27;20042;-91
2023/08/14 07:50:44;;;;;;;16.60;15.60;;;;;;;25.31;47.75;98884.28;5117948;27;20422;-92
2023/08/14 07:53:10;;;;;;;19.63;18.15;;;;;;;25.55;48.94;98888.59;5117803;27;20036;-94
2023/08/14 07:55:36;;;;;;;17.35;15.88;;;;;;;25.69;48.55;98874.59;5117121;27;20062;-95
2023/08/14 07:58:02;;;;;;;16.48;15.30;;;;;;;25.77;49.40;98880.25;5116537;27;20064;-91
2023/08/14 08:00:29;;;;;;;15.93;14.85;;;;;;;25.93;48.93;98881.63;5111275;27;20035;-92
2023/08/14 08:02:55;;;;;;;16.67;15.45;;;;;;;26.09;48.04;98878.41;5116178;27;20043;-92
2023/08/14 08:05:21;;;;;;;14.32;13.18;;;;;;;26.19;46.99;98879.31;5113376;28;20046;-92
2023/08/14 08:07:47;;;;;;;13.15;12.23;;;;;;;26.23;47.14;98878.03;5117553;27;20060;-93
2023/08/14 08:10:13;;;;;;;12.35;11.50;;;;;;;26.37;46.51;98883.13;5114963;28;20032;-93
2023/08/14 08:12:38;;;;;;;17.00;15.40;;;;;;;26.43;47.90;98881.69;5114528;27;20039;-93
2023/08/14 08:15:05;;;;;;;11.63;10.50;;;;;;;26.55;46.45;98880.56;5116925;27;20126;-94
2023/08/14 08:17:33;;;;;;;10.75;9.95;;;;;;;26.58;46.40;98884.91;5114155;27;20089;-93
2023/08/14 08:19:59;;;;;;;11.43;10.43;;;;;;;26.69;47.03;98881.19;5116264;27;20050;-92
2023/08/14 08:22:25;;;;;;;11.90;11.02;;;;;;;26.80;46.91;98884.63;5117265;27;20091;-93
2023/08/14 08:24:50;;;;;;;10.98;10.18;;;;;;;26.88;46.21;98877.63;5116169;27;20027;-93
2023/08/14 08:27:16;;;;;;;11.02;9.98;;;;;;;26.98;45.67;98884.81;5116219;27;20043;-94
2023/08/14 08:29:42;;;;;;;10.30;9.35;;;;;;;27.04;46.57;98880.63;5116559;27;20130;-94
2023/08/14 08:32:08;;;;;;;11.07;9.85;;;;;;;27.08;46.68;98873.03;5115174;27;20035;-93
2023/08/14 08:34:35;;;;;;;10.80;9.90;;;;;;;27.28;45.74;98879.38;5117728;27;20039;-94
2023/08/14 08:37:01;;;;;;;10.50;9.73;;;;;;;27.44;46.57;98872.31;5116290;27;20039;-93
2023/08/14 08:39:27;;;;;;;10.48;9.57;;;;;;;26.60;47.08;98878.31;5117556;27;20043;-93
2023/08/14 08:41:56;;;;;;;9.82;9.02;;;;;;;26.90;47.19;98864.72;5116520;27;20043;-91
2023/08/14 08:44:24;;;;;;;10.18;9.35;;;;;;;27.15;46.20;98872.31;5117310;27;20035;-92
2023/08/14 08:46:53;;;;;;;10.38;9.57;;;;;;;27.42;45.99;98879.78;5115759;27;20051;-91
2023/08/14 08:49:18;;;;;;;;;;;;;;;27.73;45.51;98884.19;5116030;27;20546;-92
2023/08/14 08:51:46;;;;;;;10.13;9.05;;;;;;;27.98;44.94;98879.97;5116545;27;19915;-90
2023/08/14 08:54:14;;;;;;;9.95;9.10;;;;;;;28.25;44.34;98887.31;5113562;27;20038;-92
2023/08/14 08:56:40;;;;;;;9.32;8.50;;;;;;;28.10;43.05;98895.16;5115189;27;20041;-92
2023/08/14 08:59:07;;;;;;;9.55;8.73;;;;;;;28.17;44.49;98881.75;5114562;27;20046;-93
2023/08/14 09:01:33;;;;;;;9.60;8.80;;;;;;;28.43;44.33;98876.41;5117079;27;20070;-93
2023/08/14 09:04:00;;;;;;;8.77;7.93;;;;;;;28.58;41.75;98876.81;5119191;27;20055;-94
2023/08/14 09:06:26;;;;;;;9.82;9.00;;;;;;;28.57;41.03;98864.16;5117986;27;20039;-92
2023/08/14 09:08:53;;;;;;;8.70;8.00;;;;;;;28.71;40.91;98885.50;5118756;27;20361;-92
2023/08/14 09:11:19;;;;;;;9.45;8.43;;;;;;;28.61;40.89;98877.38;5116236;27;20063;-93
2023/08/14 09:13:46;;;;;;;8.88;8.18;;;;;;;28.36;40.25;98862.50;5115780;27;20126;-91
2023/08/14 09:16:13;;;;;;;8.63;7.93;;;;;;;28.43;40.46;98874.56;5114995;27;20035;-93
2023/08/14 09:18:39;;;;;;;9.68;8.85;;;;;;;28.01;40.34;98869.56;5115606;27;20074;-92
2023/08/14 09:21:05;;;;;;;17.08;9.38;;;;;;;28.45;41.55;98868.94;5115229;27;20511;-93
2023/08/14 09:23:31;;;;;;;9.35;8.55;;;;;;;28.56;39.57;98878.81;5114540;27;20035;-91
2023/08/14 09:25:59;;;;;;;9.00;8.20;;;;;;;28.49;39.26;98862.16;5115567;27;20039;-92
2023/08/14 09:28:25;;;;;;;8.10;7.43;;;;;;;28.96;39.26;98863.88;5114626;27;20035;-93
2023/08/14 09:30:51;;;;;;;8.05;7.35;;;;;;;29.27;38.46;98873.41;5113654;27;20042;-91
2023/08/14 09:33:16;;;;;;;8.13;7.43;;;;;;;29.55;39.52;98865.06;5111084;27;20062;-92
2023/08/14 09:35:52;;;;;;;11.35;10.38;;;;;;;29.79;38.82;98856.19;5116097;27;20036;-93
2023/08/14 09:38:18;;;;;;;7.60;6.85;;;;;;;29.96;37.47;98861.75;5115306;27;20039;-92
2023/08/14 09:40:44;;;;;;;8.38;7.57;;;;;;;30.01;36.99;98853.91;5115875;27;20519;-92
2023/08/14 09:43:12;;;;;;;7.97;7.15;;;;;;;30.19;37.05;98851.06;5114909;27;20061;-91
2023/08/14 09:45:39;;;;;;;7.60;6.90;;;;;;;30.07;35.61;98859.59;5116195;27;20480;-92
2023/08/14 09:48:06;;;;;;;6.93;6.32;;;;;;;29.86;35.49;98834.44;5115465;27;20050;-94
2023/08/14 09:50:35;;;;;;;8.07;7.38;;;;;;;29.99;36.73;98843.06;5116213;27;20035;-93
2023/08/14 09:53:01;;;;;;;7.93;6.97;;;;;;;30.05;35.25;98853.41;5115893;27;20484;-93
2023/08/14 09:55:27;;;;;;;8.00;7.22;;;;;;;30.06;35.81;98838.69;5114065;28;20047;-91
2023/08/14 09:57:53;;;;;;;7.80;6.53;;;;;;;29.97;36.66;98831.44;5115551;27;20035;-92
2023/08/14 10:00:21;;;;;;;7.63;7.03;;;;;;;29.94;36.57;98830.91;5112512;27;20048;-93
2023/08/14 10:02:47;;;;;;;8.02;6.93;;;;;;;29.83;35.91;98823.81;5113213;27;20103;-94
2023/08/14 10:05:14;;;;;;;8.27;7.10;;;;;;;29.95;37.05;98843.56;5114043;27;20103;-92
2023/08/14 10:07:42;;;;;;;10.20;7.10;;;;;;;30.24;36.98;98838.56;5114461;27;20057;-92
2023/08/14 10:10:08;;;;;;;;;;;;;;;30.25;35.84;98831.19;5115314;27;20042;-92
2023/08/14 10:12:43;;;;;;;7.70;6.95;;;;;;;30.36;35.76;98805.38;5115379;27;19923;-93
2023/08/14 10:15:13;;;;;;;12.93;7.93;;;;;;;30.59;35.12;98824.81;5114326;27;20430;-95
2023/08/14 10:17:46;;;;;;;7.40;6.70;;;;;;;30.74;35.02;98820.38;5114366;27;20088;-93
2023/08/14 10:20:17;;;;;;;7.47;6.78;;;;;;;30.56;35.09;98825.16;5114476;27;20046;-92
2023/08/14 10:22:44;;;;;;;8.02;6.85;;;;;;;30.69;35.10;98814.56;5122879;27;20046;-90
2023/08/14 10:25:11;;;;;;;7.55;6.75;;;;;;;30.88;36.01;98817.03;5100969;28;20405;-93
2023/08/14 10:27:37;;;;;;;6.88;6.25;;;;;;;30.96;35.24;98816.16;5114301;28;20471;-93
2023/08/14 10:30:04;;;;;;;8.68;7.75;;;;;;;31.05;35.20;98820.59;5113687;28;20497;-92
2023/08/14 10:32:31;;;;;;;7.10;6.40;;;;;;;31.04;34.54;98807.06;5113050;28;20038;-93
2023/08/14 10:34:58;;;;;;;7.35;6.65;;;;;;;31.15;34.51;98795.72;5113959;28;20031;-93
2023/08/14 10:37:26;;;;;;;7.10;6.50;;;;;;;30.48;34.86;98782.94;5114349;28;20039;-92
2023/08/14 10:39:57;;;;;;;7.60;6.80;;;;;;;30.50;35.46;98791.88;5114801;28;20096;-91
2023/08/14 10:42:23;;;;;;;7.65;6.95;;;;;;;30.42;35.79;98802.81;5114002;28;20118;-90
2023/08/14 10:44:49;;;;;;;7.55;6.75;;;;;;;30.62;36.89;98808.00;5115627;28;20121;-91
2023/08/14 10:47:15;;;;;;;7.07;6.38;;;;;;;30.58;36.31;98801.13;5111509;28;20105;-94
2023/08/14 10:49:44;;;;;;;7.13;6.43;;;;;;;30.70;35.76;98794.31;5114555;28;20488;-92
2023/08/14 10:52:14;;;;;;;6.88;6.25;;;;;;;30.78;37.67;98787.97;5113155;28;20039;-93
2023/08/14 10:54:40;;;;;;;6.43;5.82;;;;;;;30.97;34.82;98792.28;5115432;28;20046;-93
2023/08/14 10:57:10;;;;;;;7.03;6.40;;;;;;;30.78;34.26;98797.06;5114603;28;20039;-94
2023/08/14 10:59:36;;;;;;;7.13;6.43;;;;;;;30.73;34.22;98783.00;5114302;28;20069;-93
2023/08/14 11:02:11;;;;;;;6.93;6.22;;;;;;;30.80;33.23;98772.19;5111338;28;20055;-92
2023/08/14 11:04:56;;;;;;;6.93;6.30;;;;;;;30.57;34.18;98788.47;5114994;28;20043;-92
2023/08/14 11:07:27;;;;;;;6.45;5.85;;;;;;;30.86;35.59;98790.75;5105710;28;20092;-93
2023/08/14 11:09:54;;;;;;;6.95;6.28;;;;;;;30.73;35.35;98785.75;5116047;28;20039;-92
2023/08/14 11:12:20;;;;;;;9.80;6.80;;;;;;;30.85;35.04;98781.63;5114461;28;20100;-92
2023/08/14 11:14:46;;;;;;;6.53;5.93;;;;;;;31.00;36.20;98772.75;5111913;27;20441;-92
2023/08/14 11:17:12;;;;;;;6.85;6.25;;;;;;;31.07;34.76;98780.09;5122196;27;20065;-91
2023/08/14 11:19:38;;;;;;;6.40;5.80;;;;;;;31.23;34.58;98776.50;5119154;27;20936;-93
2023/08/14 11:22:04;;;;;;;6.63;5.90;;;;;;;31.29;34.20;98775.81;5119764;27;20031;-92